Time;durP1;ratioP1;P1;durP2;ratioP2;P2;SDS_P1;SDS_P2;PMS_P1;PMS_P2;Temp;Humidity;BMP_temperature;BMP_pressure;BME280_temperature;BME280_humidity;BME280_pressure;Samples;Min_cycle;Max_cycle;Signal;HPM_P1;HPM_P2
2022/09/28 00:00:32;;;;;;;7.13;3.22;;;;;;;;;;6129672;23;20018;-81
2022/09/28 00:02:58;;;;;;;9.15;3.65;;;;;;;;;;6155633;23;20652;-81
2022/09/28 00:05:25;;;;;;;8.63;3.10;;;;;;;;;;6136352;23;20025;-81
2022/09/28 00:07:53;;;;;;;7.65;3.10;;;;;;;;;;6184361;23;20029;-81
2022/09/28 00:10:21;;;;;;;7.15;3.22;;;;;;;;;;6185618;23;20037;-81
2022/09/28 00:12:49;;;;;;;5.63;2.75;;;;;;;;;;6184392;23;20028;-81
2022/09/28 00:15:15;;;;;;;6.55;3.28;;;;;;;;;;6185870;23;20739;-81
2022/09/28 00:17:43;;;;;;;7.65;2.95;;;;;;;;;;6183628;23;20041;-81
2022/09/28 00:20:10;;;;;;;6.72;3.15;;;;;;;;;;6184239;23;20036;-80
2022/09/28 00:22:37;;;;;;;8.73;3.20;;;;;;;;;;6185644;23;20068;-81
2022/09/28 00:25:04;;;;;;;6.32;2.92;;;;;;;;;;6185581;23;20090;-81
2022/09/28 00:27:30;;;;;;;7.53;3.20;;;;;;;;;;6186106;23;20049;-81
2022/09/28 00:29:57;;;;;;;8.30;3.40;;;;;;;;;;6184812;23;20460;-81
2022/09/28 00:32:23;;;;;;;6.70;2.83;;;;;;;;;;6185390;23;20064;-81
2022/09/28 00:34:50;;;;;;;9.90;3.75;;;;;;;;;;6186463;23;20085;-81
2022/09/28 00:37:20;;;;;;;8.30;3.00;;;;;;;;;;6185710;23;20521;-81
2022/09/28 00:39:47;;;;;;;8.83;2.70;;;;;;;;;;6184542;23;20084;-81
2022/09/28 00:42:18;;;;;;;8.38;3.13;;;;;;;;;;6185261;23;20066;-81
2022/09/28 00:44:52;;;;;;;7.18;3.28;;;;;;;;;;6185026;23;20026;-81
2022/09/28 00:47:40;;;;;;;7.05;3.20;;;;;;;;;;6185055;23;20025;-81
2022/09/28 00:50:21;;;;;;;6.35;3.15;;;;;;;;;;6183923;23;20017;-81
2022/09/28 00:52:53;;;;;;;7.15;3.53;;;;;;;;;;6185108;23;20349;-81
2022/09/28 00:55:24;;;;;;;8.13;3.33;;;;;;;;;;6185046;23;20026;-81
2022/09/28 00:57:54;;;;;;;7.32;3.22;;;;;;;;;;6196880;23;20036;-81
2022/09/28 01:00:20;;;;;;;7.97;3.10;;;;;;;;;;6194526;23;20441;-81
2022/09/28 01:02:47;;;;;;;7.68;3.40;;;;;;;;;;6195284;23;20036;-81
2022/09/28 01:05:13;;;;;;;10.70;3.35;;;;;;;;;;6190108;23;21309;-81
2022/09/28 01:07:40;;;;;;;6.90;3.03;;;;;;;;;;6141053;23;20047;-81
2022/09/28 01:10:07;;;;;;;8.05;3.03;;;;;;;;;;6166784;23;20018;-81
2022/09/28 01:12:33;;;;;;;7.80;3.35;;;;;;;;;;6140231;23;20077;-81
2022/09/28 01:15:00;;;;;;;7.63;3.22;;;;;;;;;;6140170;23;20028;-81
2022/09/28 01:17:38;;;;;;;7.30;3.40;;;;;;;;;;6141069;23;20030;-80
2022/09/28 01:20:17;;;;;;;8.52;3.20;;;;;;;;;;6141781;23;20018;-81
2022/09/28 01:23:16;;;;;;;8.13;3.38;;;;;;;;;;6141920;23;20018;-81
2022/09/28 01:25:42;;;;;;;8.13;3.30;;;;;;;;;;6091393;23;20014;-81
2022/09/28 01:28:13;;;;;;;10.57;3.40;;;;;;;;;;6138999;23;20018;-81
2022/09/28 01:30:42;;;;;;;7.78;2.97;;;;;;;;;;6137630;23;20011;-81
2022/09/28 01:33:11;;;;;;;6.68;3.13;;;;;;;;;;6138467;23;20029;-81
2022/09/28 01:35:43;;;;;;;7.22;3.30;;;;;;;;;;6139103;23;20021;-81
2022/09/28 01:38:24;;;;;;;9.95;3.28;;;;;;;;;;6139521;23;20573;-81
2022/09/28 01:40:50;;;;;;;;;;;;;;;;;;6142264;23;20033;-81
2022/09/28 01:43:18;;;;;;;7.80;3.30;;;;;;;;;;6141491;23;46654;-81
2022/09/28 01:45:50;;;;;;;9.65;3.30;;;;;;;;;;6140048;23;20018;-81
2022/09/28 01:48:21;;;;;;;8.00;3.65;;;;;;;;;;6139664;23;20029;-81
2022/09/28 01:50:49;;;;;;;8.35;3.53;;;;;;;;;;6140678;23;20030;-81
2022/09/28 01:53:34;;;;;;;7.25;3.35;;;;;;;;;;6141569;23;20021;-81
2022/09/28 01:56:03;;;;;;;5.80;3.00;;;;;;;;;;6140451;23;20451;-81
2022/09/28 01:58:42;;;;;;;7.85;3.70;;;;;;;;;;6138811;23;20565;-81
2022/09/28 02:01:13;;;;;;;11.95;3.78;;;;;;;;;;6164368;23;20806;-81
2022/09/28 02:03:42;;;;;;;11.57;4.00;;;;;;;;;;6139958;23;20018;-81
2022/09/28 02:06:14;;;;;;;12.20;4.78;;;;;;;;;;6165407;23;20021;-81
2022/09/28 02:09:02;;;;;;;8.48;4.25;;;;;;;;;;6195691;23;20021;-81
2022/09/28 02:11:28;;;;;;;12.25;4.90;;;;;;;;;;6195310;23;20089;-81
2022/09/28 02:13:59;;;;;;;11.68;4.70;;;;;;;;;;6196208;23;20021;-81
2022/09/28 02:16:42;;;;;;;9.80;4.80;;;;;;;;;;6193919;23;20021;-81
2022/09/28 02:19:10;;;;;;;10.50;4.20;;;;;;;;;;6192627;23;20463;-80
2022/09/28 02:21:39;;;;;;;10.38;4.70;;;;;;;;;;6183213;23;20493;-81
2022/09/28 02:24:08;;;;;;;11.40;5.40;;;;;;;;;;6183102;23;20033;-81
2022/09/28 02:26:37;;;;;;;11.05;5.25;;;;;;;;;;6185913;23;20030;-81
2022/09/28 02:29:04;;;;;;;10.73;5.32;;;;;;;;;;6186877;23;20556;-81
2022/09/28 02:31:30;;;;;;;12.15;6.20;;;;;;;;;;6184427;23;20049;-80
2022/09/28 02:33:57;;;;;;;11.60;5.65;;;;;;;;;;6185307;23;20029;-81
2022/09/28 02:36:27;;;;;;;13.10;6.10;;;;;;;;;;6184236;23;20029;-81
2022/09/28 02:38:54;;;;;;;14.52;6.72;;;;;;;;;;6185220;23;20018;-81
2022/09/28 02:41:26;;;;;;;14.98;6.75;;;;;;;;;;6186465;23;20029;-81
2022/09/28 02:43:52;;;;;;;13.23;6.55;;;;;;;;;;6186396;23;20033;-81
2022/09/28 02:46:18;;;;;;;14.48;6.35;;;;;;;;;;6193725;23;20084;-81
2022/09/28 02:48:51;;;;;;;13.82;6.45;;;;;;;;;;6195692;23;20018;-81
2022/09/28 02:51:38;;;;;;;13.30;7.25;;;;;;;;;;6195932;23;20100;-82
2022/09/28 02:54:04;;;;;;;14.57;7.05;;;;;;;;;;6193980;23;20030;-81
2022/09/28 02:57:06;;;;;;;12.02;6.88;;;;;;;;;;6194673;23;20013;-81
2022/09/28 02:59:47;;;;;;;16.20;7.03;;;;;;;;;;6105961;23;20038;-81
2022/09/28 03:02:23;;;;;;;11.93;5.70;;;;;;;;;;6187364;23;20048;-81
2022/09/28 03:05:08;;;;;;;11.88;5.65;;;;;;;;;;6193553;23;20029;-82
2022/09/28 03:07:36;;;;;;;12.88;5.88;;;;;;;;;;6193823;23;20027;-81
2022/09/28 03:10:05;;;;;;;13.88;5.78;;;;;;;;;;6194660;23;20021;-82
2022/09/28 03:12:32;;;;;;;10.10;5.20;;;;;;;;;;6194864;23;20017;-81
2022/09/28 03:15:05;;;;;;;9.10;5.10;;;;;;;;;;6194175;23;20025;-81
2022/09/28 03:17:32;;;;;;;12.60;5.22;;;;;;;;;;6194253;23;20029;-81
2022/09/28 03:19:58;;;;;;;11.73;5.53;;;;;;;;;;6193924;23;20798;-80
2022/09/28 03:22:24;;;;;;;14.55;4.88;;;;;;;;;;6194639;23;20030;-81
2022/09/28 03:24:50;;;;;;;10.93;4.97;;;;;;;;;;6191121;23;20119;-80
2022/09/28 03:27:17;;;;;;;9.18;4.75;;;;;;;;;;6188545;23;20048;-81
2022/09/28 03:29:43;;;;;;;10.75;4.50;;;;;;;;;;6187675;23;20025;-81
2022/09/28 03:32:10;;;;;;;10.43;4.30;;;;;;;;;;6186005;23;20033;-80
2022/09/28 03:34:36;;;;;;;9.88;4.72;;;;;;;;;;6188024;23;20021;-80
2022/09/28 03:37:02;;;;;;;10.60;4.75;;;;;;;;;;6187800;23;20053;-79
2022/09/28 03:39:29;;;;;;;9.77;4.50;;;;;;;;;;6187177;23;20013;-80
2022/09/28 03:41:58;;;;;;;9.80;4.38;;;;;;;;;;6188303;23;20938;-82
2022/09/28 03:44:24;;;;;;;8.25;3.97;;;;;;;;;;6188920;23;20029;-80
2022/09/28 03:46:51;;;;;;;13.02;4.30;;;;;;;;;;6187827;23;20014;-80
2022/09/28 03:49:17;;;;;;;12.13;4.35;;;;;;;;;;6189098;23;20460;-80
2022/09/28 03:51:43;;;;;;;8.77;4.32;;;;;;;;;;6188040;23;20025;-81
2022/09/28 03:54:10;;;;;;;10.60;4.93;;;;;;;;;;6187991;23;20017;-79
2022/09/28 03:56:36;;;;;;;9.32;4.72;;;;;;;;;;6188859;23;20049;-81
2022/09/28 03:59:03;;;;;;;13.63;3.95;;;;;;;;;;6189581;23;20033;-82
2022/09/28 04:01:29;;;;;;;8.95;4.20;;;;;;;;;;6190114;23;20026;-81
2022/09/28 04:03:55;;;;;;;7.22;3.47;;;;;;;;;;6190765;23;20022;-80
2022/09/28 04:06:22;;;;;;;7.53;3.33;;;;;;;;;;6171858;23;20033;-80
2022/09/28 04:08:49;;;;;;;9.63;4.03;;;;;;;;;;6160306;23;20021;-79
2022/09/28 04:11:15;;;;;;;8.77;4.15;;;;;;;;;;6135422;23;20113;-81
2022/09/28 04:13:42;;;;;;;7.90;3.67;;;;;;;;;;6136215;23;20813;-80
2022/09/28 04:16:08;;;;;;;6.57;3.00;;;;;;;;;;6135022;23;20025;-81
2022/09/28 04:18:35;;;;;;;11.50;3.20;;;;;;;;;;6135720;23;20026;-78
2022/09/28 04:21:05;;;;;;;29.05;4.32;;;;;;;;;;6160086;23;20030;-82
2022/09/28 04:23:33;;;;;;;8.25;3.47;;;;;;;;;;6130497;23;20014;-81
2022/09/28 04:25:59;;;;;;;8.50;3.45;;;;;;;;;;6130926;23;20037;-81
2022/09/28 04:31:12;;;;;;;7.75;3.72;;;;;;;;;;6157215;23;20030;-81
2022/09/28 04:33:38;;;;;;;7.10;3.10;;;;;;;;;;6156451;23;20034;-81
2022/09/28 04:36:04;;;;;;;5.47;2.75;;;;;;;;;;6130382;23;20032;-81
2022/09/28 04:38:31;;;;;;;5.72;2.92;;;;;;;;;;6130756;23;20033;-81
2022/09/28 04:41:17;;;;;;;7.63;2.78;;;;;;;;;;6157112;23;20032;-81
2022/09/28 04:43:45;;;;;;;5.43;2.67;;;;;;;;;;6131215;23;20903;-81
2022/09/28 04:46:12;;;;;;;7.82;2.78;;;;;;;;;;6129498;23;20041;-81
2022/09/28 04:48:38;;;;;;;5.95;2.78;;;;;;;;;;6129928;23;20030;-80
2022/09/28 04:51:04;;;;;;;6.50;2.63;;;;;;;;;;6130933;23;20029;-81
2022/09/28 04:53:31;;;;;;;5.68;2.63;;;;;;;;;;6156633;23;20375;-81
2022/09/28 04:55:58;;;;;;;9.15;2.55;;;;;;;;;;6155003;23;20030;-81
2022/09/28 04:58:25;;;;;;;5.78;2.45;;;;;;;;;;6131529;23;20810;-82
2022/09/28 05:00:58;;;;;;;7.25;2.45;;;;;;;;;;6133678;23;20014;-81
2022/09/28 05:03:25;;;;;;;4.80;2.20;;;;;;;;;;6157366;23;20046;-81
2022/09/28 05:05:52;;;;;;;7.85;2.30;;;;;;;;;;6156055;23;20097;-81
2022/09/28 05:08:18;;;;;;;6.25;2.30;;;;;;;;;;6157264;23;20026;-80
2022/09/28 05:10:44;;;;;;;5.28;2.20;;;;;;;;;;6131488;23;20029;-80
2022/09/28 05:13:11;;;;;;;4.45;2.15;;;;;;;;;;6158333;23;20037;-80
2022/09/28 05:15:40;;;;;;;6.93;2.20;;;;;;;;;;6130822;23;20026;-80
2022/09/28 05:18:07;;;;;;;5.78;2.08;;;;;;;;;;6130456;23;20037;-80
2022/09/28 05:20:38;;;;;;;7.32;2.10;;;;;;;;;;6156752;23;20029;-80
2022/09/28 05:23:04;;;;;;;5.00;1.98;;;;;;;;;;6157848;23;20029;-80
2022/09/28 05:25:32;;;;;;;5.32;1.90;;;;;;;;;;6156682;23;20033;-81
2022/09/28 05:28:00;;;;;;;5.95;2.10;;;;;;;;;;6130392;23;20037;-81
2022/09/28 05:30:26;;;;;;;5.10;1.80;;;;;;;;;;6130053;23;20085;-80
2022/09/28 05:32:53;;;;;;;5.28;1.83;;;;;;;;;;6130674;23;20092;-80
2022/09/28 05:35:19;;;;;;;4.35;1.60;;;;;;;;;;6130012;23;20026;-80
2022/09/28 05:37:46;;;;;;;5.65;1.75;;;;;;;;;;6130500;23;20037;-80
2022/09/28 05:40:12;;;;;;;4.40;1.80;;;;;;;;;;6157165;23;20345;-80
2022/09/28 05:42:39;;;;;;;4.85;1.67;;;;;;;;;;6156483;23;20030;-80
2022/09/28 05:45:06;;;;;;;7.35;1.95;;;;;;;;;;6130208;23;20034;-80
2022/09/28 05:47:38;;;;;;;6.32;1.98;;;;;;;;;;6156708;23;20464;-80
2022/09/28 05:50:05;;;;;;;4.20;1.63;;;;;;;;;;6130508;23;20037;-80
2022/09/28 05:52:31;;;;;;;6.47;1.88;;;;;;;;;;6156548;23;20595;-80
2022/09/28 05:55:01;;;;;;;4.53;1.48;;;;;;;;;;6129811;23;20085;-80
2022/09/28 05:57:29;;;;;;;4.10;1.55;;;;;;;;;;6156754;23;20085;-80
2022/09/28 05:59:55;;;;;;;9.00;1.92;;;;;;;;;;6156286;23;20030;-80
2022/09/28 06:02:27;;;;;;;7.05;3.00;;;;;;;;;;6130334;23;20065;-80
2022/09/28 06:04:54;;;;;;;6.10;2.05;;;;;;;;;;6156381;23;20026;-80
2022/09/28 06:07:21;;;;;;;5.68;2.22;;;;;;;;;;6130497;23;20030;-80
2022/09/28 06:09:48;;;;;;;5.78;2.20;;;;;;;;;;6129914;23;20026;-80
2022/09/28 06:12:20;;;;;;;6.00;1.75;;;;;;;;;;6129310;23;20037;-80
2022/09/28 06:14:47;;;;;;;5.63;1.90;;;;;;;;;;6129471;23;20029;-81
2022/09/28 06:17:13;;;;;;;9.32;1.88;;;;;;;;;;6130662;23;20033;-81
2022/09/28 06:19:40;;;;;;;4.80;1.65;;;;;;;;;;6129956;23;20061;-81
2022/09/28 06:22:06;;;;;;;4.93;2.15;;;;;;;;;;6128967;23;20037;-80
2022/09/28 06:24:32;;;;;;;6.55;2.05;;;;;;;;;;6155730;23;20573;-81
2022/09/28 06:27:00;;;;;;;4.90;1.95;;;;;;;;;;6130970;23;20026;-81
2022/09/28 06:29:26;;;;;;;4.78;1.80;;;;;;;;;;6130553;23;20620;-81
2022/09/28 06:31:53;;;;;;;7.13;1.77;;;;;;;;;;6130042;23;20038;-81
2022/09/28 06:34:20;;;;;;;4.15;1.90;;;;;;;;;;6155560;23;20029;-81
2022/09/28 06:36:47;;;;;;;4.20;1.52;;;;;;;;;;6129631;23;20026;-81
2022/09/28 06:39:13;;;;;;;11.27;2.03;;;;;;;;;;6129002;23;20030;-81
2022/09/28 06:41:40;;;;;;;7.22;1.65;;;;;;;;;;6157180;23;20030;-80
2022/09/28 06:44:06;;;;;;;4.97;1.50;;;;;;;;;;6129849;23;20029;-81
2022/09/28 06:46:32;;;;;;;4.00;1.65;;;;;;;;;;6154061;23;20024;-81
2022/09/28 06:48:58;;;;;;;4.03;1.60;;;;;;;;;;6130596;23;20034;-80
2022/09/28 06:51:25;;;;;;;5.07;1.48;;;;;;;;;;6130158;23;20041;-80
2022/09/28 06:53:52;;;;;;;5.22;1.73;;;;;;;;;;6130923;23;20026;-80
2022/09/28 06:56:19;;;;;;;6.15;2.17;;;;;;;;;;6156738;23;20026;-80
2022/09/28 06:58:46;;;;;;;7.45;2.60;;;;;;;;;;6131651;23;20982;-80
2022/09/28 07:01:12;;;;;;;5.30;1.98;;;;;;;;;;6131037;23;20826;-80
2022/09/28 07:03:39;;;;;;;8.35;2.35;;;;;;;;;;6131127;23;20029;-81
2022/09/28 07:06:09;;;;;;;5.40;1.75;;;;;;;;;;6156448;23;20048;-80
2022/09/28 07:08:36;;;;;;;6.68;2.03;;;;;;;;;;6130021;23;20029;-80
2022/09/28 07:11:06;;;;;;;5.25;1.60;;;;;;;;;;6131187;23;20029;-81
2022/09/28 07:13:32;;;;;;;5.28;1.77;;;;;;;;;;6130698;23;20081;-81
2022/09/28 07:16:16;;;;;;;4.78;1.70;;;;;;;;;;6156909;23;20025;-81
2022/09/28 07:18:42;;;;;;;4.57;1.60;;;;;;;;;;6130395;23;20034;-80
2022/09/28 07:21:09;;;;;;;4.20;1.50;;;;;;;;;;6156776;23;20034;-81
2022/09/28 07:23:53;;;;;;;6.10;1.48;;;;;;;;;;6134123;23;20029;-81
2022/09/28 07:26:20;;;;;;;3.80;1.60;;;;;;;;;;6130250;23;20101;-81
2022/09/28 07:28:49;;;;;;;6.55;1.92;;;;;;;;;;6156768;23;20029;-81
2022/09/28 07:31:16;;;;;;;6.63;1.80;;;;;;;;;;6129072;23;20030;-81
2022/09/28 07:33:42;;;;;;;4.82;1.92;;;;;;;;;;6131699;23;20037;-80
2022/09/28 07:36:09;;;;;;;6.80;1.88;;;;;;;;;;6157424;23;20022;-82
2022/09/28 07:38:37;;;;;;;5.03;1.67;;;;;;;;;;6131451;23;20034;-81
2022/09/28 07:41:13;;;;;;;5.30;2.10;;;;;;;;;;6131807;23;20048;-81
2022/09/28 07:43:40;;;;;;;7.88;2.20;;;;;;;;;;6130897;23;20037;-82
2022/09/28 07:46:10;;;;;;;6.93;1.98;;;;;;;;;;6131385;23;20030;-82
2022/09/28 07:48:38;;;;;;;4.82;2.05;;;;;;;;;;6157560;23;20478;-82
2022/09/28 07:51:05;;;;;;;6.10;2.17;;;;;;;;;;6131575;23;20029;-82
2022/09/28 07:53:31;;;;;;;7.38;2.30;;;;;;;;;;6131282;23;20029;-81
2022/09/28 07:56:04;;;;;;;3.20;1.58;;;;;;;;;;6156949;23;20501;-81
2022/09/28 07:58:33;;;;;;;6.35;2.00;;;;;;;;;;6155990;23;20033;-81
2022/09/28 08:01:05;;;;;;;3.10;1.23;;;;;;;;;;6130508;23;20530;-81
2022/09/28 08:03:31;;;;;;;4.55;1.48;;;;;;;;;;6157554;23;20336;-80
2022/09/28 08:05:58;;;;;;;3.95;1.30;;;;;;;;;;6156302;23;20014;-81
2022/09/28 08:08:24;;;;;;;4.03;1.42;;;;;;;;;;6157004;23;20462;-81
2022/09/28 08:10:51;;;;;;;5.78;1.55;;;;;;;;;;6156564;23;20769;-81
2022/09/28 08:13:19;;;;;;;5.18;1.50;;;;;;;;;;6157965;23;20030;-81
2022/09/28 08:15:50;;;;;;;6.57;1.50;;;;;;;;;;6157374;23;20030;-81
2022/09/28 08:18:17;;;;;;;4.57;1.40;;;;;;;;;;6157693;23;20052;-80
2022/09/28 08:23:28;;;;;;;4.55;1.45;;;;;;;;;;6156269;23;20026;-82
2022/09/28 08:25:54;;;;;;;3.60;1.40;;;;;;;;;;6155357;23;21229;-82
2022/09/28 08:28:21;;;;;;;4.35;1.30;;;;;;;;;;6130162;23;20030;-82
2022/09/28 08:30:48;;;;;;;3.60;1.30;;;;;;;;;;6130279;23;20026;-81
2022/09/28 08:33:16;;;;;;;2.95;1.00;;;;;;;;;;6130474;23;20085;-81
2022/09/28 08:35:43;;;;;;;3.40;1.10;;;;;;;;;;6155044;23;20025;-81
2022/09/28 08:38:09;;;;;;;4.03;1.30;;;;;;;;;;6130362;23;20081;-83
2022/09/28 08:40:45;;;;;;;3.33;1.10;;;;;;;;;;6130812;23;20085;-82
2022/09/28 08:43:27;;;;;;;4.35;1.50;;;;;;;;;;6131119;23;20030;-83
2022/09/28 08:45:55;;;;;;;4.57;1.17;;;;;;;;;;6158467;23;20093;-83
2022/09/28 08:48:42;;;;;;;3.25;1.08;;;;;;;;;;6155658;23;20026;-83
2022/09/28 08:51:29;;;;;;;3.03;0.98;;;;;;;;;;6132211;23;20454;-81
2022/09/28 08:53:59;;;;;;;2.80;0.95;;;;;;;;;;6129538;23;20133;-81
2022/09/28 08:56:34;;;;;;;2.10;0.80;;;;;;;;;;6156889;23;20026;-81
2022/09/28 08:59:02;;;;;;;3.25;0.80;;;;;;;;;;6156929;23;20073;-82
2022/09/28 09:01:32;;;;;;;3.58;1.30;;;;;;;;;;6130226;23;20562;-82
2022/09/28 09:03:58;;;;;;;2.67;0.80;;;;;;;;;;6131001;23;20018;-82
2022/09/28 09:06:38;;;;;;;2.47;0.80;;;;;;;;;;6156708;23;20041;-83
2022/09/28 09:09:14;;;;;;;3.30;0.70;;;;;;;;;;6157741;23;21227;-82
2022/09/28 09:11:47;;;;;;;2.67;0.80;;;;;;;;;;6130711;23;20085;-82
2022/09/28 09:14:13;;;;;;;3.30;0.70;;;;;;;;;;6130662;23;20037;-82
2022/09/28 09:16:49;;;;;;;3.53;0.77;;;;;;;;;;6157356;23;20030;-83
2022/09/28 09:19:26;;;;;;;2.13;0.80;;;;;;;;;;6157881;23;20026;-82
2022/09/28 09:22:00;;;;;;;2.70;0.73;;;;;;;;;;6130626;23;20034;-82
2022/09/28 09:24:36;;;;;;;2.45;0.80;;;;;;;;;;6157860;23;20032;-81
2022/09/28 09:27:04;;;;;;;2.30;0.60;;;;;;;;;;6130900;23;20746;-81
2022/09/28 09:29:39;;;;;;;2.33;0.73;;;;;;;;;;6157676;23;20026;-82
2022/09/28 09:32:08;;;;;;;2.15;0.50;;;;;;;;;;6131026;23;20033;-81
2022/09/28 09:34:49;;;;;;;1.88;0.68;;;;;;;;;;6130160;23;20037;-82
2022/09/28 09:37:34;;;;;;;2.50;0.60;;;;;;;;;;6157112;23;20018;-83
2022/09/28 09:40:19;;;;;;;3.17;0.90;;;;;;;;;;6127323;23;20026;-81
2022/09/28 09:42:48;;;;;;;3.47;0.60;;;;;;;;;;6128113;23;20033;-78
2022/09/28 09:45:34;;;;;;;1.58;0.50;;;;;;;;;;6157096;23;20037;-80
2022/09/28 09:48:14;;;;;;;2.75;0.70;;;;;;;;;;6134268;23;20034;-79
2022/09/28 09:50:49;;;;;;;3.28;0.60;;;;;;;;;;6157881;23;20022;-80
2022/09/28 09:53:20;;;;;;;2.00;0.68;;;;;;;;;;6156956;23;20030;-82
2022/09/28 09:55:49;;;;;;;1.27;0.50;;;;;;;;;;6132222;23;20026;-81
2022/09/28 09:58:21;;;;;;;1.58;0.40;;;;;;;;;;6129274;23;20494;-82
2022/09/28 10:00:49;;;;;;;1.55;0.43;;;;;;;;;;6133922;23;20036;-83
2022/09/28 10:03:22;;;;;;;1.35;0.40;;;;;;;;;;6132592;23;20068;-81
2022/09/28 10:05:56;;;;;;;1.33;0.50;;;;;;;;;;6149754;23;20029;-81
2022/09/28 10:08:24;;;;;;;1.48;0.40;;;;;;;;;;6185975;23;20120;-80
2022/09/28 10:10:53;;;;;;;3.15;0.30;;;;;;;;;;6189002;23;20061;-79
2022/09/28 10:13:19;;;;;;;0.98;0.35;;;;;;;;;;6188424;23;20124;-80
2022/09/28 10:15:46;;;;;;;2.05;0.40;;;;;;;;;;6188865;23;20084;-81
2022/09/28 10:18:14;;;;;;;0.73;0.30;;;;;;;;;;6186840;23;20025;-80
2022/09/28 10:20:43;;;;;;;0.88;0.30;;;;;;;;;;6185175;23;20018;-80
2022/09/28 10:23:14;;;;;;;1.50;0.40;;;;;;;;;;6187208;23;20029;-80
2022/09/28 10:25:42;;;;;;;1.40;0.60;;;;;;;;;;6190545;23;20018;-81
2022/09/28 10:28:10;;;;;;;1.33;0.40;;;;;;;;;;6189098;23;20509;-80
2022/09/28 10:30:41;;;;;;;2.63;0.43;;;;;;;;;;6183895;23;20072;-81
2022/09/28 10:33:07;;;;;;;;;;;;;;;;;;6188489;23;20036;-80
2022/09/28 10:35:41;;;;;;;1.50;0.47;;;;;;;;;;6186731;23;46347;-80
2022/09/28 10:38:10;;;;;;;2.55;0.57;;;;;;;;;;6187272;23;20502;-80
2022/09/28 10:40:50;;;;;;;0.40;0.30;;;;;;;;;;6191186;23;20073;-80
2022/09/28 10:43:16;;;;;;;3.00;0.43;;;;;;;;;;6189021;23;20018;-81
2022/09/28 10:45:43;;;;;;;1.75;0.45;;;;;;;;;;6188658;23;20021;-80
2022/09/28 10:48:18;;;;;;;2.00;0.47;;;;;;;;;;6189402;23;20446;-80
2022/09/28 10:50:56;;;;;;;1.25;0.40;;;;;;;;;;6189762;23;20102;-80
2022/09/28 10:53:22;;;;;;;1.30;0.50;;;;;;;;;;6189592;23;20029;-80
2022/09/28 10:56:00;;;;;;;1.73;0.43;;;;;;;;;;6189273;23;20494;-80
2022/09/28 10:58:37;;;;;;;1.52;0.40;;;;;;;;;;6191671;23;20037;-80
2022/09/28 11:01:08;;;;;;;1.67;0.50;;;;;;;;;;6191922;23;20025;-80
2022/09/28 11:03:38;;;;;;;2.33;0.40;;;;;;;;;;6189002;23;20039;-80
2022/09/28 11:06:06;;;;;;;2.28;0.45;;;;;;;;;;6174519;23;20025;-81
2022/09/28 11:08:41;;;;;;;0.98;0.40;;;;;;;;;;6135161;23;20085;-80
2022/09/28 11:11:09;;;;;;;1.90;0.40;;;;;;;;;;6134464;23;20017;-80
2022/09/28 11:13:46;;;;;;;1.88;0.55;;;;;;;;;;6134642;23;20025;-80
2022/09/28 11:16:17;;;;;;;1.42;0.40;;;;;;;;;;6135031;23;20073;-80
2022/09/28 11:18:44;;;;;;;2.80;0.47;;;;;;;;;;6163820;23;20026;-82
2022/09/28 11:21:15;;;;;;;2.42;0.40;;;;;;;;;;6134952;23;20077;-81
2022/09/28 11:23:53;;;;;;;3.83;0.45;;;;;;;;;;6163882;23;20017;-81
2022/09/28 11:26:20;;;;;;;2.80;0.50;;;;;;;;;;6138049;23;20018;-80
2022/09/28 11:28:49;;;;;;;2.35;0.40;;;;;;;;;;6136878;23;20026;-82
2022/09/28 11:31:23;;;;;;;2.38;0.40;;;;;;;;;;6134993;23;20025;-84
2022/09/28 11:33:50;;;;;;;2.42;0.40;;;;;;;;;;6135765;23;20025;-82
2022/09/28 11:36:23;;;;;;;0.82;0.40;;;;;;;;;;6137431;23;20029;-81
2022/09/28 11:38:59;;;;;;;2.05;0.43;;;;;;;;;;6167271;23;20025;-81
2022/09/28 11:41:25;;;;;;;1.20;0.40;;;;;;;;;;6138486;23;20030;-81
2022/09/28 11:43:54;;;;;;;4.00;0.50;;;;;;;;;;6138302;23;20041;-82
2022/09/28 11:46:36;;;;;;;1.85;0.50;;;;;;;;;;6163308;23;20109;-81
2022/09/28 11:49:06;;;;;;;1.77;0.50;;;;;;;;;;6139096;23;20026;-82
2022/09/28 11:51:33;;;;;;;;;;;;;;;;;;6138816;23;20010;-82
2022/09/28 11:54:13;;;;;;;1.05;0.40;;;;;;;;;;6135990;23;44034;-81
2022/09/28 11:56:42;;;;;;;0.98;0.47;;;;;;;;;;6137842;23;20030;-82
2022/09/28 11:59:19;;;;;;;1.10;0.40;;;;;;;;;;6133173;23;20483;-81
2022/09/28 12:01:56;;;;;;;1.17;0.40;;;;;;;;;;6138826;23;20024;-81
2022/09/28 12:04:25;;;;;;;2.08;0.82;;;;;;;;;;6140233;23;20030;-83
2022/09/28 12:06:57;;;;;;;1.23;0.40;;;;;;;;;;6183450;23;20036;-83
2022/09/28 12:09:31;;;;;;;2.20;0.50;;;;;;;;;;6192451;23;20334;-83
2022/09/28 12:12:00;;;;;;;2.03;0.40;;;;;;;;;;6193395;23;20020;-82
2022/09/28 12:14:32;;;;;;;1.38;0.45;;;;;;;;;;6193326;23;20029;-82
2022/09/28 12:17:09;;;;;;;2.97;0.50;;;;;;;;;;6196117;23;20018;-82
2022/09/28 12:19:45;;;;;;;1.52;0.40;;;;;;;;;;6192068;23;20800;-83
2022/09/28 12:22:21;;;;;;;2.45;0.50;;;;;;;;;;6192785;23;20025;-82
2022/09/28 12:24:54;;;;;;;1.00;0.30;;;;;;;;;;6193620;23;20030;-83
2022/09/28 12:27:41;;;;;;;1.90;0.40;;;;;;;;;;6201883;23;20021;-82
2022/09/28 12:30:20;;;;;;;0.75;0.40;;;;;;;;;;6198154;23;20107;-82
2022/09/28 12:33:06;;;;;;;0.95;0.43;;;;;;;;;;6198922;23;20033;-82
2022/09/28 12:35:44;;;;;;;2.45;0.60;;;;;;;;;;6197271;23;20017;-83
2022/09/28 12:38:13;;;;;;;1.73;0.57;;;;;;;;;;6200336;23;20017;-83
2022/09/28 12:40:48;;;;;;;0.82;0.38;;;;;;;;;;6201324;23;20021;-82
2022/09/28 12:43:16;;;;;;;0.82;0.40;;;;;;;;;;6201062;23;20038;-83
2022/09/28 12:46:05;;;;;;;1.38;0.52;;;;;;;;;;6199229;23;20017;-85
2022/09/28 12:48:47;;;;;;;2.42;0.68;;;;;;;;;;6191713;23;20057;-84
2022/09/28 12:51:33;;;;;;;2.40;0.82;;;;;;;;;;6198115;23;20021;-86
2022/09/28 12:53:59;;;;;;;2.53;0.60;;;;;;;;;;6199118;23;20029;-87
2022/09/28 12:56:45;;;;;;;1.92;0.50;;;;;;;;;;6198277;23;20030;-84
2022/09/28 12:59:15;;;;;;;1.88;0.50;;;;;;;;;;6198234;23;20498;-86
2022/09/28 13:01:55;;;;;;;1.52;0.60;;;;;;;;;;6197123;23;20020;-88
2022/09/28 13:04:25;;;;;;;3.00;0.90;;;;;;;;;;6188156;23;20029;-86
2022/09/28 13:06:59;;;;;;;1.88;0.55;;;;;;;;;;6183653;23;20021;-87
2022/09/28 13:09:30;;;;;;;2.45;0.70;;;;;;;;;;6184538;23;20026;-87
2022/09/28 13:12:03;;;;;;;1.88;0.70;;;;;;;;;;6185248;23;20021;-87
2022/09/28 13:14:30;;;;;;;2.28;0.60;;;;;;;;;;6189268;23;20030;-87
2022/09/28 13:17:02;;;;;;;3.38;0.90;;;;;;;;;;6187948;23;20076;-87
2022/09/28 13:19:35;;;;;;;3.63;1.00;;;;;;;;;;6194084;23;20030;-86
2022/09/28 13:22:07;;;;;;;2.03;0.80;;;;;;;;;;6193001;23;20048;-85
2022/09/28 13:24:35;;;;;;;2.55;0.90;;;;;;;;;;6198063;23;20049;-87
2022/09/28 13:27:05;;;;;;;4.38;0.60;;;;;;;;;;6198818;23;20014;-85
2022/09/28 13:29:33;;;;;;;2.28;0.52;;;;;;;;;;6193750;23;20489;-85
2022/09/28 13:32:03;;;;;;;1.77;0.80;;;;;;;;;;6197375;23;20024;-88
2022/09/28 13:34:31;;;;;;;1.27;0.50;;;;;;;;;;6202017;23;20060;-85
2022/09/28 13:37:15;;;;;;;1.52;0.60;;;;;;;;;;6200894;23;20032;-86
2022/09/28 13:39:44;;;;;;;2.28;0.60;;;;;;;;;;6203973;23;20032;-88
2022/09/28 13:42:23;;;;;;;4.03;0.73;;;;;;;;;;6202382;23;20029;-84
2022/09/28 13:45:01;;;;;;;1.98;0.80;;;;;;;;;;6201351;23;20028;-84
2022/09/28 13:47:43;;;;;;;2.65;1.08;;;;;;;;;;6193981;23;20029;-84
2022/09/28 13:50:12;;;;;;;3.42;0.95;;;;;;;;;;6191148;23;20018;-84
2022/09/28 13:52:43;;;;;;;3.28;1.20;;;;;;;;;;6190490;23;20025;-84
2022/09/28 13:55:19;;;;;;;4.45;0.80;;;;;;;;;;6188189;23;20029;-84
2022/09/28 13:57:49;;;;;;;6.15;0.90;;;;;;;;;;6190409;23;20047;-84
2022/09/28 14:00:23;;;;;;;2.08;0.70;;;;;;;;;;6189600;23;20017;-84
2022/09/28 14:03:00;;;;;;;2.58;0.70;;;;;;;;;;6194258;23;20034;-84
2022/09/28 14:05:33;;;;;;;2.80;0.68;;;;;;;;;;6193898;23;20053;-84
2022/09/28 14:08:17;;;;;;;2.70;0.60;;;;;;;;;;6192430;23;20032;-85
2022/09/28 14:10:48;;;;;;;2.45;0.70;;;;;;;;;;6192244;23;20018;-84
2022/09/28 14:13:35;;;;;;;2.15;0.68;;;;;;;;;;6190948;23;20030;-84
2022/09/28 14:16:16;;;;;;;3.33;0.80;;;;;;;;;;6144348;23;20029;-85
2022/09/28 14:18:51;;;;;;;2.28;0.60;;;;;;;;;;6188693;23;20026;-84
2022/09/28 14:21:20;;;;;;;3.28;0.98;;;;;;;;;;6190203;23;20022;-84
2022/09/28 14:23:47;;;;;;;3.72;1.60;;;;;;;;;;6188594;23;20029;-85
2022/09/28 14:26:35;;;;;;;2.10;0.85;;;;;;;;;;6188761;23;20028;-85
2022/09/28 14:29:13;;;;;;;2.42;0.80;;;;;;;;;;6188077;23;20026;-85
2022/09/28 14:31:42;;;;;;;1.90;0.60;;;;;;;;;;6186192;23;20086;-84
2022/09/28 14:34:22;;;;;;;3.67;0.90;;;;;;;;;;6186286;23;20029;-84
2022/09/28 14:42:21;;;;;;;2.33;0.80;;;;;;;;;;6190790;23;20029;-85
2022/09/28 14:45:03;;;;;;;2.58;0.98;;;;;;;;;;6189726;23;20029;-84
2022/09/28 14:47:33;;;;;;;5.15;1.08;;;;;;;;;;6191807;23;20104;-85
2022/09/28 14:50:16;;;;;;;1.60;0.70;;;;;;;;;;6196945;23;20010;-85
2022/09/28 14:52:45;;;;;;;1.42;0.50;;;;;;;;;;6198831;23;20010;-85
2022/09/28 14:55:17;;;;;;;3.97;1.42;;;;;;;;;;6194612;23;20021;-87
2022/09/28 14:57:57;;;;;;;3.58;0.88;;;;;;;;;;6195882;23;20048;-86
2022/09/28 15:00:26;;;;;;;2.13;0.77;;;;;;;;;;6196471;23;20141;-85
2022/09/28 15:03:02;;;;;;;1.92;0.68;;;;;;;;;;6196938;23;20010;-87
2022/09/28 15:05:53;;;;;;;2.60;1.00;;;;;;;;;;6194801;23;20036;-86
2022/09/28 15:08:22;;;;;;;2.25;0.90;;;;;;;;;;6193981;23;20057;-81
2022/09/28 15:10:50;;;;;;;2.05;0.70;;;;;;;;;;6193707;23;20025;-82
2022/09/28 15:13:31;;;;;;;2.53;0.98;;;;;;;;;;6192673;23;20035;-81
2022/09/28 15:16:05;;;;;;;2.28;0.60;;;;;;;;;;6193214;23;20025;-81